sensor_id;sensor_type;location;lat;lon;timestamp;P1;durP1;ratioP1;P2;durP2;ratioP2
5209;SDS011;2624;48.048;11.706;2023-10-13T00:03:20;2.73;;;1.90;;
5209;SDS011;2624;48.048;11.706;2023-10-13T00:08:23;3.03;;;2.00;;
5209;SDS011;2624;48.048;11.706;2023-10-13T00:13:26;2.27;;;2.07;;
5209;SDS011;2624;48.048;11.706;2023-10-13T00:18:29;2.10;;;1.80;;
5209;SDS011;2624;48.048;11.706;2023-10-13T00:23:34;2.70;;;2.40;;
5209;SDS011;2624;48.048;11.706;2023-10-13T00:28:36;9.30;;;2.20;;
5209;SDS011;2624;48.048;11.706;2023-10-13T00:33:46;2.20;;;1.60;;
5209;SDS011;2624;48.048;11.706;2023-10-13T00:38:51;5.80;;;2.10;;
5209;SDS011;2624;48.048;11.706;2023-10-13T00:43:53;1.63;;;1.53;;
5209;SDS011;2624;48.048;11.706;2023-10-13T00:49:05;2.97;;;1.80;;
5209;SDS011;2624;48.048;11.706;2023-10-13T00:54:10;3.50;;;1.97;;
5209;SDS011;2624;48.048;11.706;2023-10-13T00:59:12;2.43;;;1.90;;
5209;SDS011;2624;48.048;11.706;2023-10-13T01:04:14;8.20;;;2.30;;
5209;SDS011;2624;48.048;11.706;2023-10-13T01:09:20;4.00;;;1.97;;
5209;SDS011;2624;48.048;11.706;2023-10-13T01:14:25;1.50;;;1.40;;
5209;SDS011;2624;48.048;11.706;2023-10-13T01:19:29;7.33;;;2.27;;
5209;SDS011;2624;48.048;11.706;2023-10-13T01:24:32;1.80;;;1.70;;
5209;SDS011;2624;48.048;11.706;2023-10-13T01:29:35;3.47;;;1.90;;
5209;SDS011;2624;48.048;11.706;2023-10-13T01:34:36;6.83;;;2.30;;
5209;SDS011;2624;48.048;11.706;2023-10-13T01:39:40;2.23;;;1.47;;
5209;SDS011;2624;48.048;11.706;2023-10-13T01:44:41;4.10;;;1.40;;
5209;SDS011;2624;48.048;11.706;2023-10-13T01:49:43;3.10;;;1.90;;
5209;SDS011;2624;48.048;11.706;2023-10-13T01:54:48;5.73;;;1.40;;
5209;SDS011;2624;48.048;11.706;2023-10-13T01:59:51;1.43;;;1.17;;
5209;SDS011;2624;48.048;11.706;2023-10-13T02:04:52;2.47;;;1.70;;
5209;SDS011;2624;48.048;11.706;2023-10-13T02:09:58;6.97;;;1.67;;
5209;SDS011;2624;48.048;11.706;2023-10-13T02:15:04;4.27;;;2.00;;
5209;SDS011;2624;48.048;11.706;2023-10-13T02:20:06;5.40;;;1.67;;
5209;SDS011;2624;48.048;11.706;2023-10-13T02:25:12;5.60;;;2.17;;
5209;SDS011;2624;48.048;11.706;2023-10-13T02:30:17;5.87;;;1.93;;
5209;SDS011;2624;48.048;11.706;2023-10-13T02:35:24;3.13;;;1.80;;
5209;SDS011;2624;48.048;11.706;2023-10-13T02:40:35;5.40;;;2.00;;
5209;SDS011;2624;48.048;11.706;2023-10-13T02:45:37;9.73;;;1.80;;
5209;SDS011;2624;48.048;11.706;2023-10-13T02:50:40;1.77;;;1.60;;
5209;SDS011;2624;48.048;11.706;2023-10-13T02:55:51;2.03;;;1.83;;
5209;SDS011;2624;48.048;11.706;2023-10-13T03:00:53;3.97;;;2.00;;
5209;SDS011;2624;48.048;11.706;2023-10-13T03:05:58;7.90;;;2.00;;
5209;SDS011;2624;48.048;11.706;2023-10-13T03:11:02;6.53;;;1.60;;
5209;SDS011;2624;48.048;11.706;2023-10-13T03:16:10;6.80;;;2.20;;
5209;SDS011;2624;48.048;11.706;2023-10-13T03:21:15;4.70;;;1.93;;
5209;SDS011;2624;48.048;11.706;2023-10-13T03:26:29;3.50;;;1.80;;
5209;SDS011;2624;48.048;11.706;2023-10-13T03:31:34;1.57;;;1.47;;
5209;SDS011;2624;48.048;11.706;2023-10-13T03:36:39;4.87;;;1.83;;
5209;SDS011;2624;48.048;11.706;2023-10-13T03:42:00;7.67;;;2.20;;
5209;SDS011;2624;48.048;11.706;2023-10-13T03:47:05;2.47;;;1.70;;
5209;SDS011;2624;48.048;11.706;2023-10-13T03:52:18;2.10;;;1.90;;
5209;SDS011;2624;48.048;11.706;2023-10-13T03:57:24;4.63;;;1.60;;
5209;SDS011;2624;48.048;11.706;2023-10-13T04:02:27;7.03;;;1.60;;
5209;SDS011;2624;48.048;11.706;2023-10-13T04:07:29;3.80;;;2.13;;
5209;SDS011;2624;48.048;11.706;2023-10-13T04:13:02;5.57;;;2.03;;
5209;SDS011;2624;48.048;11.706;2023-10-13T04:18:21;6.43;;;1.90;;
5209;SDS011;2624;48.048;11.706;2023-10-13T04:23:34;5.00;;;1.77;;
5209;SDS011;2624;48.048;11.706;2023-10-13T04:28:59;9.40;;;1.40;;
5209;SDS011;2624;48.048;11.706;2023-10-13T04:34:10;2.10;;;1.90;;
5209;SDS011;2624;48.048;11.706;2023-10-13T04:39:19;7.87;;;2.37;;
5209;SDS011;2624;48.048;11.706;2023-10-13T04:44:36;2.00;;;1.70;;
5209;SDS011;2624;48.048;11.706;2023-10-13T04:49:52;5.43;;;1.90;;
5209;SDS011;2624;48.048;11.706;2023-10-13T04:54:58;4.63;;;2.10;;
5209;SDS011;2624;48.048;11.706;2023-10-13T05:00:12;6.20;;;1.70;;
5209;SDS011;2624;48.048;11.706;2023-10-13T05:05:42;2.40;;;1.63;;
5209;SDS011;2624;48.048;11.706;2023-10-13T05:11:07;2.10;;;1.90;;
5209;SDS011;2624;48.048;11.706;2023-10-13T05:16:33;2.80;;;1.97;;
5209;SDS011;2624;48.048;11.706;2023-10-13T05:21:52;4.73;;;1.50;;
5209;SDS011;2624;48.048;11.706;2023-10-13T05:27:12;3.93;;;1.90;;
5209;SDS011;2624;48.048;11.706;2023-10-13T05:32:33;4.90;;;1.80;;
5209;SDS011;2624;48.048;11.706;2023-10-13T05:37:52;4.30;;;2.17;;
5209;SDS011;2624;48.048;11.706;2023-10-13T05:43:19;5.17;;;1.50;;
5209;SDS011;2624;48.048;11.706;2023-10-13T05:48:40;7.30;;;1.67;;
5209;SDS011;2624;48.048;11.706;2023-10-13T05:54:10;4.20;;;1.90;;
5209;SDS011;2624;48.048;11.706;2023-10-13T05:59:30;4.93;;;2.30;;
5209;SDS011;2624;48.048;11.706;2023-10-13T06:04:52;11.23;;;2.73;;
5209;SDS011;2624;48.048;11.706;2023-10-13T06:10:11;2.73;;;1.63;;
5209;SDS011;2624;48.048;11.706;2023-10-13T06:15:35;6.57;;;2.03;;
5209;SDS011;2624;48.048;11.706;2023-10-13T06:20:56;4.43;;;1.80;;
5209;SDS011;2624;48.048;11.706;2023-10-13T06:26:15;7.70;;;2.47;;
5209;SDS011;2624;48.048;11.706;2023-10-13T06:31:35;13.03;;;1.80;;
5209;SDS011;2624;48.048;11.706;2023-10-13T06:36:38;7.10;;;2.03;;
5209;SDS011;2624;48.048;11.706;2023-10-13T06:41:40;5.07;;;2.33;;
5209;SDS011;2624;48.048;11.706;2023-10-13T06:46:42;7.97;;;1.87;;
5209;SDS011;2624;48.048;11.706;2023-10-13T06:51:45;2.60;;;2.10;;
5209;SDS011;2624;48.048;11.706;2023-10-13T06:56:47;3.73;;;1.73;;
5209;SDS011;2624;48.048;11.706;2023-10-13T07:01:52;4.10;;;1.63;;
5209;SDS011;2624;48.048;11.706;2023-10-13T07:06:55;6.80;;;2.40;;
5209;SDS011;2624;48.048;11.706;2023-10-13T07:11:58;5.00;;;2.30;;
5209;SDS011;2624;48.048;11.706;2023-10-13T07:17:01;7.00;;;2.97;;
5209;SDS011;2624;48.048;11.706;2023-10-13T07:22:09;10.70;;;2.50;;
5209;SDS011;2624;48.048;11.706;2023-10-13T07:27:19;2.93;;;2.73;;
5209;SDS011;2624;48.048;11.706;2023-10-13T07:32:24;8.10;;;3.37;;
5209;SDS011;2624;48.048;11.706;2023-10-13T07:37:28;7.93;;;2.40;;
5209;SDS011;2624;48.048;11.706;2023-10-13T07:42:30;12.70;;;3.07;;
5209;SDS011;2624;48.048;11.706;2023-10-13T07:47:39;4.50;;;1.57;;
5209;SDS011;2624;48.048;11.706;2023-10-13T07:52:43;5.77;;;1.83;;
5209;SDS011;2624;48.048;11.706;2023-10-13T07:57:59;5.33;;;2.37;;
5209;SDS011;2624;48.048;11.706;2023-10-13T08:03:07;22.07;;;1.90;;
5209;SDS011;2624;48.048;11.706;2023-10-13T08:08:20;5.63;;;1.60;;
5209;SDS011;2624;48.048;11.706;2023-10-13T08:13:25;5.70;;;1.70;;
5209;SDS011;2624;48.048;11.706;2023-10-13T08:18:27;6.07;;;2.40;;
5209;SDS011;2624;48.048;11.706;2023-10-13T08:23:32;9.60;;;1.73;;
5209;SDS011;2624;48.048;11.706;2023-10-13T08:28:51;6.40;;;1.90;;
5209;SDS011;2624;48.048;11.706;2023-10-13T08:33:56;12.33;;;2.23;;
5209;SDS011;2624;48.048;11.706;2023-10-13T08:39:08;9.43;;;2.23;;
5209;SDS011;2624;48.048;11.706;2023-10-13T08:44:37;9.07;;;2.27;;
5209;SDS011;2624;48.048;11.706;2023-10-13T08:49:45;10.20;;;2.67;;
5209;SDS011;2624;48.048;11.706;2023-10-13T08:54:52;18.73;;;1.90;;
5209;SDS011;2624;48.048;11.706;2023-10-13T09:00:14;2.70;;;1.83;;
5209;SDS011;2624;48.048;11.706;2023-10-13T09:05:32;2.73;;;1.97;;
5209;SDS011;2624;48.048;11.706;2023-10-13T09:10:58;2.53;;;1.43;;
5209;SDS011;2624;48.048;11.706;2023-10-13T09:16:11;6.60;;;2.30;;
5209;SDS011;2624;48.048;11.706;2023-10-13T09:21:42;5.80;;;1.97;;
5209;SDS011;2624;48.048;11.706;2023-10-13T09:26:57;9.07;;;2.07;;
5209;SDS011;2624;48.048;11.706;2023-10-13T09:32:02;7.40;;;2.20;;
5209;SDS011;2624;48.048;11.706;2023-10-13T09:37:05;10.80;;;1.70;;
5209;SDS011;2624;48.048;11.706;2023-10-13T09:42:12;1.77;;;1.67;;
5209;SDS011;2624;48.048;11.706;2023-10-13T09:47:16;7.00;;;1.93;;
5209;SDS011;2624;48.048;11.706;2023-10-13T09:52:29;3.53;;;2.03;;
5209;SDS011;2624;48.048;11.706;2023-10-13T09:57:34;1.70;;;1.40;;
5209;SDS011;2624;48.048;11.706;2023-10-13T10:02:44;2.10;;;1.33;;
5209;SDS011;2624;48.048;11.706;2023-10-13T10:07:54;5.73;;;1.93;;
5209;SDS011;2624;48.048;11.706;2023-10-13T10:12:59;6.00;;;1.40;;
5209;SDS011;2624;48.048;11.706;2023-10-13T10:18:17;4.37;;;1.80;;
5209;SDS011;2624;48.048;11.706;2023-10-13T10:23:23;3.33;;;1.90;;
5209;SDS011;2624;48.048;11.706;2023-10-13T10:28:34;9.50;;;1.90;;
5209;SDS011;2624;48.048;11.706;2023-10-13T10:33:36;8.10;;;1.87;;
5209;SDS011;2624;48.048;11.706;2023-10-13T10:38:38;7.80;;;1.57;;
5209;SDS011;2624;48.048;11.706;2023-10-13T10:43:54;7.03;;;2.00;;
5209;SDS011;2624;48.048;11.706;2023-10-13T10:48:55;4.77;;;2.00;;
5209;SDS011;2624;48.048;11.706;2023-10-13T10:54:01;4.60;;;1.53;;
5209;SDS011;2624;48.048;11.706;2023-10-13T10:59:12;4.27;;;1.70;;
5209;SDS011;2624;48.048;11.706;2023-10-13T11:04:18;9.10;;;2.03;;
5209;SDS011;2624;48.048;11.706;2023-10-13T11:09:24;5.13;;;1.33;;
5209;SDS011;2624;48.048;11.706;2023-10-13T11:14:38;6.93;;;1.80;;
5209;SDS011;2624;48.048;11.706;2023-10-13T11:19:40;4.47;;;2.10;;
5209;SDS011;2624;48.048;11.706;2023-10-13T11:24:43;3.80;;;2.47;;
5209;SDS011;2624;48.048;11.706;2023-10-13T11:29:46;3.63;;;2.00;;
5209;SDS011;2624;48.048;11.706;2023-10-13T11:34:52;8.53;;;1.73;;
5209;SDS011;2624;48.048;11.706;2023-10-13T11:39:54;7.47;;;2.23;;
5209;SDS011;2624;48.048;11.706;2023-10-13T11:44:57;2.50;;;1.63;;
5209;SDS011;2624;48.048;11.706;2023-10-13T11:50:24;6.30;;;1.90;;
5209;SDS011;2624;48.048;11.706;2023-10-13T11:55:32;10.00;;;2.10;;
5209;SDS011;2624;48.048;11.706;2023-10-13T12:00:36;5.40;;;1.63;;
5209;SDS011;2624;48.048;11.706;2023-10-13T12:05:53;3.07;;;1.53;;
5209;SDS011;2624;48.048;11.706;2023-10-13T12:11:18;5.77;;;2.10;;
5209;SDS011;2624;48.048;11.706;2023-10-13T12:16:33;8.30;;;2.10;;
5209;SDS011;2624;48.048;11.706;2023-10-13T12:21:35;3.13;;;1.63;;
5209;SDS011;2624;48.048;11.706;2023-10-13T12:26:37;4.80;;;1.70;;
5209;SDS011;2624;48.048;11.706;2023-10-13T12:31:43;3.87;;;2.30;;
5209;SDS011;2624;48.048;11.706;2023-10-13T12:36:52;4.90;;;1.80;;
5209;SDS011;2624;48.048;11.706;2023-10-13T12:42:05;4.93;;;2.30;;
5209;SDS011;2624;48.048;11.706;2023-10-13T12:47:26;6.53;;;1.83;;
5209;SDS011;2624;48.048;11.706;2023-10-13T12:52:45;2.20;;;1.93;;
5209;SDS011;2624;48.048;11.706;2023-10-13T12:57:47;4.90;;;2.20;;
5209;SDS011;2624;48.048;11.706;2023-10-13T13:02:50;4.93;;;2.97;;
5209;SDS011;2624;48.048;11.706;2023-10-13T13:07:55;3.37;;;1.90;;
5209;SDS011;2624;48.048;11.706;2023-10-13T13:12:57;6.53;;;2.10;;
5209;SDS011;2624;48.048;11.706;2023-10-13T13:18:00;8.03;;;2.50;;
5209;SDS011;2624;48.048;11.706;2023-10-13T13:23:10;9.70;;;2.83;;
5209;SDS011;2624;48.048;11.706;2023-10-13T13:28:12;6.43;;;2.40;;
5209;SDS011;2624;48.048;11.706;2023-10-13T13:33:16;8.03;;;2.90;;
5209;SDS011;2624;48.048;11.706;2023-10-13T13:38:23;15.00;;;1.80;;
5209;SDS011;2624;48.048;11.706;2023-10-13T13:43:27;4.00;;;2.40;;
5209;SDS011;2624;48.048;11.706;2023-10-13T13:48:38;5.50;;;2.53;;
5209;SDS011;2624;48.048;11.706;2023-10-13T13:53:41;4.03;;;2.50;;
5209;SDS011;2624;48.048;11.706;2023-10-13T13:58:45;8.90;;;2.13;;
5209;SDS011;2624;48.048;11.706;2023-10-13T14:03:49;8.43;;;2.07;;
5209;SDS011;2624;48.048;11.706;2023-10-13T14:08:51;3.33;;;2.23;;
5209;SDS011;2624;48.048;11.706;2023-10-13T14:13:56;4.10;;;3.23;;
5209;SDS011;2624;48.048;11.706;2023-10-13T14:18:59;4.53;;;3.23;;
5209;SDS011;2624;48.048;11.706;2023-10-13T14:24:02;4.67;;;2.80;;
5209;SDS011;2624;48.048;11.706;2023-10-13T14:29:12;4.53;;;2.37;;
5209;SDS011;2624;48.048;11.706;2023-10-13T14:34:17;7.50;;;3.10;;
5209;SDS011;2624;48.048;11.706;2023-10-13T14:39:21;6.10;;;2.30;;
5209;SDS011;2624;48.048;11.706;2023-10-13T14:44:29;3.93;;;2.20;;
5209;SDS011;2624;48.048;11.706;2023-10-13T14:49:33;7.33;;;2.37;;
5209;SDS011;2624;48.048;11.706;2023-10-13T14:54:35;4.57;;;2.60;;
5209;SDS011;2624;48.048;11.706;2023-10-13T14:59:38;9.53;;;2.20;;
5209;SDS011;2624;48.048;11.706;2023-10-13T15:04:41;4.20;;;2.57;;
5209;SDS011;2624;48.048;11.706;2023-10-13T15:09:43;37.53;;;2.73;;
5209;SDS011;2624;48.048;11.706;2023-10-13T15:14:44;10.63;;;3.67;;
5209;SDS011;2624;48.048;11.706;2023-10-13T15:19:48;12.93;;;2.97;;
5209;SDS011;2624;48.048;11.706;2023-10-13T15:24:50;4.10;;;2.63;;
5209;SDS011;2624;48.048;11.706;2023-10-13T15:30:09;2.90;;;2.40;;
5209;SDS011;2624;48.048;11.706;2023-10-13T15:35:22;5.50;;;2.73;;
5209;SDS011;2624;48.048;11.706;2023-10-13T15:40:28;9.30;;;2.80;;
5209;SDS011;2624;48.048;11.706;2023-10-13T15:45:30;5.90;;;1.93;;
5209;SDS011;2624;48.048;11.706;2023-10-13T15:50:40;9.07;;;2.87;;
5209;SDS011;2624;48.048;11.706;2023-10-13T15:55:42;9.50;;;3.37;;
5209;SDS011;2624;48.048;11.706;2023-10-13T16:00:45;4.70;;;2.50;;
5209;SDS011;2624;48.048;11.706;2023-10-13T16:05:49;10.93;;;3.50;;
5209;SDS011;2624;48.048;11.706;2023-10-13T16:10:51;7.77;;;3.57;;
5209;SDS011;2624;48.048;11.706;2023-10-13T16:15:52;10.90;;;3.70;;
5209;SDS011;2624;48.048;11.706;2023-10-13T16:20:55;9.10;;;3.30;;
5209;SDS011;2624;48.048;11.706;2023-10-13T16:25:57;14.77;;;3.53;;
5209;SDS011;2624;48.048;11.706;2023-10-13T16:31:07;9.20;;;2.93;;
5209;SDS011;2624;48.048;11.706;2023-10-13T16:36:11;8.33;;;2.63;;
5209;SDS011;2624;48.048;11.706;2023-10-13T16:41:13;5.07;;;2.17;;
5209;SDS011;2624;48.048;11.706;2023-10-13T16:46:15;4.93;;;2.80;;
5209;SDS011;2624;48.048;11.706;2023-10-13T16:51:19;7.60;;;2.97;;
5209;SDS011;2624;48.048;11.706;2023-10-13T16:56:21;8.43;;;3.17;;
5209;SDS011;2624;48.048;11.706;2023-10-13T17:01:23;4.83;;;2.53;;
5209;SDS011;2624;48.048;11.706;2023-10-13T17:06:26;10.37;;;3.70;;
5209;SDS011;2624;48.048;11.706;2023-10-13T17:11:28;12.03;;;2.70;;
5209;SDS011;2624;48.048;11.706;2023-10-13T17:16:30;7.73;;;2.93;;
5209;SDS011;2624;48.048;11.706;2023-10-13T17:21:33;4.50;;;2.90;;
5209;SDS011;2624;48.048;11.706;2023-10-13T17:26:35;3.73;;;2.87;;
5209;SDS011;2624;48.048;11.706;2023-10-13T17:31:36;3.00;;;2.67;;
5209;SDS011;2624;48.048;11.706;2023-10-13T17:36:39;4.53;;;3.20;;
5209;SDS011;2624;48.048;11.706;2023-10-13T17:41:42;8.53;;;3.00;;
5209;SDS011;2624;48.048;11.706;2023-10-13T17:46:45;5.47;;;3.30;;
5209;SDS011;2624;48.048;11.706;2023-10-13T17:51:48;5.00;;;3.07;;
5209;SDS011;2624;48.048;11.706;2023-10-13T17:56:51;5.37;;;3.13;;
5209;SDS011;2624;48.048;11.706;2023-10-13T18:01:52;5.80;;;3.63;;
5209;SDS011;2624;48.048;11.706;2023-10-13T18:06:56;12.90;;;3.20;;
5209;SDS011;2624;48.048;11.706;2023-10-13T18:11:58;7.20;;;2.80;;
5209;SDS011;2624;48.048;11.706;2023-10-13T18:16:59;7.90;;;3.30;;
5209;SDS011;2624;48.048;11.706;2023-10-13T18:22:03;6.90;;;3.07;;
5209;SDS011;2624;48.048;11.706;2023-10-13T18:27:06;5.80;;;3.60;;
5209;SDS011;2624;48.048;11.706;2023-10-13T18:32:07;6.03;;;3.00;;
5209;SDS011;2624;48.048;11.706;2023-10-13T18:37:11;7.70;;;3.10;;
5209;SDS011;2624;48.048;11.706;2023-10-13T18:42:13;7.23;;;3.03;;
5209;SDS011;2624;48.048;11.706;2023-10-13T18:47:16;7.27;;;2.87;;
5209;SDS011;2624;48.048;11.706;2023-10-13T18:52:19;7.93;;;3.00;;
5209;SDS011;2624;48.048;11.706;2023-10-13T18:57:21;7.63;;;3.23;;
5209;SDS011;2624;48.048;11.706;2023-10-13T19:02:22;14.43;;;5.47;;
5209;SDS011;2624;48.048;11.706;2023-10-13T19:07:27;12.33;;;3.10;;
5209;SDS011;2624;48.048;11.706;2023-10-13T19:12:31;5.50;;;2.90;;
5209;SDS011;2624;48.048;11.706;2023-10-13T19:17:34;9.10;;;3.10;;
5209;SDS011;2624;48.048;11.706;2023-10-13T19:22:38;12.73;;;3.57;;
5209;SDS011;2624;48.048;11.706;2023-10-13T19:27:41;5.10;;;2.90;;
5209;SDS011;2624;48.048;11.706;2023-10-13T19:32:42;4.83;;;2.90;;
5209;SDS011;2624;48.048;11.706;2023-10-13T19:37:46;4.17;;;3.07;;
5209;SDS011;2624;48.048;11.706;2023-10-13T19:42:48;5.70;;;3.10;;
5209;SDS011;2624;48.048;11.706;2023-10-13T19:47:51;7.90;;;3.00;;
5209;SDS011;2624;48.048;11.706;2023-10-13T19:52:54;3.53;;;2.70;;
5209;SDS011;2624;48.048;11.706;2023-10-13T19:57:56;6.33;;;2.80;;
5209;SDS011;2624;48.048;11.706;2023-10-13T20:02:58;13.57;;;2.73;;
5209;SDS011;2624;48.048;11.706;2023-10-13T20:08:01;8.63;;;3.00;;
5209;SDS011;2624;48.048;11.706;2023-10-13T20:13:04;3.13;;;2.70;;
5209;SDS011;2624;48.048;11.706;2023-10-13T20:18:06;5.10;;;3.20;;
5209;SDS011;2624;48.048;11.706;2023-10-13T20:23:10;10.20;;;3.17;;
5209;SDS011;2624;48.048;11.706;2023-10-13T20:28:13;5.30;;;2.90;;
5209;SDS011;2624;48.048;11.706;2023-10-13T20:33:16;19.90;;;3.47;;
5209;SDS011;2624;48.048;11.706;2023-10-13T20:38:22;9.00;;;2.37;;
5209;SDS011;2624;48.048;11.706;2023-10-13T20:43:25;11.90;;;3.43;;
5209;SDS011;2624;48.048;11.706;2023-10-13T20:48:28;4.07;;;2.90;;
5209;SDS011;2624;48.048;11.706;2023-10-13T20:53:32;4.90;;;2.77;;
5209;SDS011;2624;48.048;11.706;2023-10-13T20:58:34;3.00;;;2.70;;
5209;SDS011;2624;48.048;11.706;2023-10-13T21:03:37;5.13;;;2.70;;
5209;SDS011;2624;48.048;11.706;2023-10-13T21:08:40;3.77;;;2.40;;
5209;SDS011;2624;48.048;11.706;2023-10-13T21:13:45;4.07;;;2.53;;
5209;SDS011;2624;48.048;11.706;2023-10-13T21:18:47;7.00;;;3.30;;
5209;SDS011;2624;48.048;11.706;2023-10-13T21:23:52;4.00;;;2.77;;
5209;SDS011;2624;48.048;11.706;2023-10-13T21:28:54;5.13;;;2.80;;
5209;SDS011;2624;48.048;11.706;2023-10-13T21:33:57;2.60;;;2.33;;
5209;SDS011;2624;48.048;11.706;2023-10-13T21:39:02;4.03;;;2.10;;
5209;SDS011;2624;48.048;11.706;2023-10-13T21:44:04;8.07;;;2.60;;
5209;SDS011;2624;48.048;11.706;2023-10-13T21:49:06;4.40;;;2.40;;
5209;SDS011;2624;48.048;11.706;2023-10-13T21:54:09;8.03;;;2.10;;
5209;SDS011;2624;48.048;11.706;2023-10-13T21:59:11;3.13;;;1.70;;
5209;SDS011;2624;48.048;11.706;2023-10-13T22:04:13;6.10;;;2.13;;
5209;SDS011;2624;48.048;11.706;2023-10-13T22:09:22;5.77;;;2.07;;
5209;SDS011;2624;48.048;11.706;2023-10-13T22:14:24;4.87;;;2.27;;
5209;SDS011;2624;48.048;11.706;2023-10-13T22:19:26;2.50;;;2.23;;
5209;SDS011;2624;48.048;11.706;2023-10-13T22:24:30;3.43;;;1.80;;
5209;SDS011;2624;48.048;11.706;2023-10-13T22:29:33;1.70;;;1.57;;
5209;SDS011;2624;48.048;11.706;2023-10-13T22:34:35;4.40;;;1.60;;
5209;SDS011;2624;48.048;11.706;2023-10-13T22:39:38;4.50;;;1.63;;
5209;SDS011;2624;48.048;11.706;2023-10-13T22:44:40;4.00;;;1.70;;
5209;SDS011;2624;48.048;11.706;2023-10-13T22:49:41;4.90;;;1.83;;
5209;SDS011;2624;48.048;11.706;2023-10-13T22:54:45;2.70;;;1.73;;
5209;SDS011;2624;48.048;11.706;2023-10-13T22:59:46;1.73;;;1.60;;
5209;SDS011;2624;48.048;11.706;2023-10-13T23:04:48;5.57;;;2.30;;
5209;SDS011;2624;48.048;11.706;2023-10-13T23:09:52;2.90;;;1.60;;
5209;SDS011;2624;48.048;11.706;2023-10-13T23:14:58;5.67;;;1.70;;
5209;SDS011;2624;48.048;11.706;2023-10-13T23:20:00;4.63;;;2.23;;
5209;SDS011;2624;48.048;11.706;2023-10-13T23:25:13;3.90;;;1.90;;
5209;SDS011;2624;48.048;11.706;2023-10-13T23:30:14;4.83;;;1.90;;
5209;SDS011;2624;48.048;11.706;2023-10-13T23:35:16;3.10;;;1.90;;
5209;SDS011;2624;48.048;11.706;2023-10-13T23:40:19;4.40;;;2.03;;
5209;SDS011;2624;48.048;11.706;2023-10-13T23:45:33;5.70;;;1.60;;
5209;SDS011;2624;48.048;11.706;2023-10-13T23:50:43;2.97;;;2.40;;
5209;SDS011;2624;48.048;11.706;2023-10-13T23:55:59;3.40;;;2.33;;
